Oriskany, NY

5:06 PM EDT on August 22, 2014 (GMT -0400)
State Preparedness Training Center | Change Station
CLOSE
Current Station
Personal Weather Station
Location: Oriskany, NY
Elevation: 718 ft
Nearby Weather Stations

Elev 718 ft 43.15 °N, 75.38 °W | Updated 24 seconds ago

Overcast
Overcast
68.2 °F
Feels Like 68.2 °F
N
9.2
Wind Variable Wind from ENE
Gusts 9.2 mph

Today
High -- | Low -- °F
--% Chance of Precip.
Yesterday
High -- | Low -- °F
Precip. -- in
6:14 AM 7:53 PM
Waning Crescent, 7% visible
Pressure 30.03 in
Visibility 10.0 miles
Clouds Overcast 1600 ft
Dew Point 64 °F
Humidity 87%
Rainfall 0.00 in
Snow Depth Not available.
UV 1 out of 12
Pollen 7.10 out of 12
PM2.5 Good
Flu Activity Not available.
METAR KRME 222053Z 09010KT 10SM OVC016 21/17 A3003 RMK AO2 SLP167 T02060172 53001

More Conditions Fewer Conditions

Pressure 30.03 in
Visibility 10.0 miles
Clouds Overcast 1600 ft
Dew Point 64 °F
Humidity 87%
Rainfall 0.00 in
Snow Depth Not available.
UV 1 out of 12
Pollen 7.10 out of 12
PM2.5 Good
Flu Activity Not available.
METAR KRME 222053Z 09010KT 10SM OVC016 21/17 A3003 RMK AO2 SLP167 T02060172 53001

More Conditions Fewer Conditions

10-Day Weather Forecast

Almanac

Astronomy

Aug. 22, 2014 Rise Set
Actual Time 6:14 AM EDT 7:53 PM EDT
Civil Twilight 5:44 AM EDT 8:23 PM EDT
Nautical Twilight 5:07 AM EDT 8:59 PM EDT
Astronomical Twilight 4:28 AM EDT 9:38 PM EDT
Moon 3:33 AM EDT 6:01 PM EDT
Length of Visible Light 14h 38m
Length of Day
13h 38m
Tomorrow will be 2m 44s shorter.
Waning Crescent, 7% of the Moon is Illuminated
Today
Waning Crescent
Aug 25
New
Sep 2
First Quarter
Sep 8
Full
Sep 15
Last Quarter

Today's Extremes

State Highs State Lows

Community

WunderPhotos

Upload Photos

1,746,253 photos uploaded!

Nearby

Air Quality

  Air Quality AQ Index Pollutant
Yesterday Good
PM2.5
Yesterday Good
OZONE
Current Good
PM2.5
Friday Good
OZONE
Friday Good
PM2.5
Saturday Good
OZONE
Saturday Good
PM2.5
Sunday Good
PM2.5
Sunday Good
OZONE
Monday Good
PM2.5
Monday Good
OZONE

Snow Depth

Station Depth Elevation
No new snow has been reported.

Earthquake Activity

City Distance Mag. Time & Date
No recent earthquake activity has been reported nearby.
Minimum magnitude displayed is 2.5.

Coastal Water Temperatures

Place Temperature
No Stations Reporting

Nearby Weather Stations